Time;durP1;ratioP1;P1;durP2;ratioP2;P2;SDS_P1;SDS_P2;PMS_P1;PMS_P2;Temp;Humidity;BMP_temperature;BMP_pressure;BME280_temperature;BME280_humidity;BME280_pressure;Samples;Min_cycle;Max_cycle;Signal;HPM_P1;HPM_P2
2021/05/04 00:00:00;;;;;;;7.90;2.10;;;;;;;;;;5006227;28;20025;-82
2021/05/04 00:02:27;;;;;;;7.78;2.05;;;;;;;;;;4990134;28;20066;-82
2021/05/04 00:04:55;;;;;;;8.05;2.40;;;;;;;;;;4989792;28;20385;-81
2021/05/04 00:07:21;;;;;;;10.20;3.33;;;;;;;;;;5010155;28;20493;-82
2021/05/04 00:09:48;;;;;;;11.38;4.03;;;;;;;;;;4999861;28;20476;-81
2021/05/04 00:12:15;;;;;;;8.30;3.13;;;;;;;;;;5008115;28;20031;-81
2021/05/04 00:17:45;;;;;;;9.27;3.35;;;;;;;;;;5000564;28;20045;-82
2021/05/04 00:20:12;;;;;;;10.05;2.90;;;;;;;;;;5001675;28;20174;-81
2021/05/04 00:22:41;;;;;;;9.15;2.42;;;;;;;;;;4988473;28;20014;-83
2021/05/04 00:25:10;;;;;;;7.00;2.10;;;;;;;;;;5009434;28;20053;-82
2021/05/04 00:27:36;;;;;;;7.32;2.22;;;;;;;;;;4990050;28;20039;-82
2021/05/04 00:30:04;;;;;;;7.30;1.75;;;;;;;;;;5009076;28;20051;-82
2021/05/04 00:32:31;;;;;;;7.97;2.00;;;;;;;;;;5009466;28;20029;-83
2021/05/04 00:35:00;;;;;;;8.23;2.03;;;;;;;;;;5009517;28;20036;-83
2021/05/04 00:37:26;;;;;;;8.07;2.17;;;;;;;;;;5007913;28;20060;-82
2021/05/04 00:39:52;;;;;;;;;;;;;;;;;;5004304;28;22007;-83
2021/05/04 00:42:23;;;;;;;8.90;1.92;;;;;;;;;;5009171;28;19963;-81
2021/05/04 00:44:49;;;;;;;6.07;1.80;;;;;;;;;;5001675;28;20029;-82
2021/05/04 00:47:16;;;;;;;;;;;;;;;;;;5011973;28;20131;-81
2021/05/04 00:49:43;;;;;;;8.65;2.50;;;;;;;;;;5009763;28;19975;-80
2021/05/04 00:52:10;;;;;;;7.78;1.85;;;;;;;;;;4990840;28;20114;-81
2021/05/04 00:54:39;;;;;;;9.15;2.00;;;;;;;;;;5007019;28;20116;-81
2021/05/04 00:57:07;;;;;;;5.25;1.55;;;;;;;;;;4977251;28;20591;-81
2021/05/04 00:59:35;;;;;;;6.00;1.65;;;;;;;;;;5003527;28;20104;-81
2021/05/04 01:02:02;;;;;;;7.15;1.70;;;;;;;;;;5005499;28;20053;-82
2021/05/04 01:04:30;;;;;;;7.32;1.70;;;;;;;;;;4976445;28;20296;-81
2021/05/04 01:07:00;;;;;;;7.18;1.80;;;;;;;;;;4972038;28;20054;-81
2021/05/04 01:09:27;;;;;;;7.00;1.70;;;;;;;;;;5010319;28;20091;-81
2021/05/04 01:11:55;;;;;;;6.38;1.80;;;;;;;;;;5004766;28;20195;-82
2021/05/04 01:14:24;;;;;;;7.00;1.70;;;;;;;;;;5008295;28;20104;-82
2021/05/04 01:16:57;;;;;;;5.53;1.70;;;;;;;;;;4990621;28;20033;-82
2021/05/04 01:19:25;;;;;;;5.90;1.90;;;;;;;;;;5010113;28;20025;-82
2021/05/04 01:21:52;;;;;;;8.95;1.90;;;;;;;;;;4987457;28;20595;-82
2021/05/04 01:24:20;;;;;;;6.18;1.88;;;;;;;;;;5003105;28;20026;-82
2021/05/04 01:26:48;;;;;;;7.07;1.80;;;;;;;;;;4983463;28;20037;-82
2021/05/04 01:29:14;;;;;;;8.15;1.75;;;;;;;;;;5005478;28;20163;-81
2021/05/04 01:31:43;;;;;;;5.85;1.40;;;;;;;;;;4996405;28;20381;-83
2021/05/04 01:34:12;;;;;;;6.95;1.73;;;;;;;;;;5006403;28;20133;-82
2021/05/04 01:36:39;;;;;;;7.50;1.60;;;;;;;;;;4986030;28;20048;-81
2021/05/04 01:39:08;;;;;;;6.80;1.63;;;;;;;;;;4995560;28;20511;-82
2021/05/04 01:41:36;;;;;;;4.68;1.50;;;;;;;;;;4991994;28;20030;-82
2021/05/04 01:44:03;;;;;;;5.40;1.60;;;;;;;;;;4993880;28;20041;-81
2021/05/04 01:46:33;;;;;;;6.53;1.48;;;;;;;;;;4996042;28;20521;-82
2021/05/04 01:49:09;;;;;;;6.10;1.77;;;;;;;;;;5013591;28;20032;-82
2021/05/04 01:51:38;;;;;;;8.73;1.77;;;;;;;;;;5007189;28;20159;-82
2021/05/04 02:00:15;;;;;;;7.90;1.70;;;;;;;;;;5004841;28;20041;-82
2021/05/04 02:02:42;;;;;;;5.45;1.50;;;;;;;;;;4990018;28;20056;-81
2021/05/04 02:05:10;;;;;;;5.80;1.50;;;;;;;;;;5007384;28;20061;-82
2021/05/04 02:07:38;;;;;;;5.38;1.30;;;;;;;;;;5006620;28;20033;-81
2021/05/04 02:10:06;;;;;;;7.07;1.60;;;;;;;;;;4992253;28;20022;-82
2021/05/04 02:12:32;;;;;;;5.35;1.45;;;;;;;;;;4992561;28;20036;-82
2021/05/04 02:14:59;;;;;;;5.03;1.38;;;;;;;;;;4993270;28;20024;-82
2021/05/04 02:17:27;;;;;;;7.03;1.50;;;;;;;;;;4994129;28;20032;-82
2021/05/04 02:19:54;;;;;;;6.20;1.30;;;;;;;;;;4993068;28;21261;-80
2021/05/04 02:22:21;;;;;;;5.43;1.30;;;;;;;;;;5009337;28;20045;-81
2021/05/04 02:24:47;;;;;;;;;;;;;;;;;;4993495;28;20045;-81
2021/05/04 02:27:14;;;;;;;5.60;1.40;;;;;;;;;;4994918;28;19916;-83
2021/05/04 02:29:40;;;;;;;4.75;1.23;;;;;;;;;;5007567;28;20017;-82
2021/05/04 02:32:10;;;;;;;4.30;1.23;;;;;;;;;;5013471;28;20075;-82
2021/05/04 02:34:36;;;;;;;4.07;1.00;;;;;;;;;;4993153;28;20030;-83
2021/05/04 02:37:03;;;;;;;4.28;1.15;;;;;;;;;;4989032;28;20496;-84
2021/05/04 02:39:29;;;;;;;5.72;1.45;;;;;;;;;;4990790;28;20349;-81
2021/05/04 02:41:55;;;;;;;4.90;1.30;;;;;;;;;;5009577;28;20116;-81
2021/05/04 02:44:24;;;;;;;2.95;1.17;;;;;;;;;;4993500;28;20033;-82
2021/05/04 02:46:56;;;;;;;3.85;1.00;;;;;;;;;;5007779;28;20029;-84
2021/05/04 02:49:22;;;;;;;3.72;1.27;;;;;;;;;;4995048;28;20080;-82
2021/05/04 02:51:49;;;;;;;4.18;1.45;;;;;;;;;;5007268;28;20017;-83
2021/05/04 02:54:17;;;;;;;4.45;1.02;;;;;;;;;;5011860;28;20022;-83
2021/05/04 02:56:46;;;;;;;3.58;1.10;;;;;;;;;;5011240;28;20108;-82
2021/05/04 02:59:12;;;;;;;4.30;1.10;;;;;;;;;;5010263;28;20033;-83
2021/05/04 03:01:40;;;;;;;3.60;1.00;;;;;;;;;;5007296;28;20102;-83
2021/05/04 03:04:07;;;;;;;3.28;0.95;;;;;;;;;;5010285;28;20163;-83
2021/05/04 03:06:33;;;;;;;4.25;1.08;;;;;;;;;;4990685;28;20037;-82
2021/05/04 03:08:59;;;;;;;;;;;;;;;;;;5009270;28;20025;-82
2021/05/04 03:11:26;;;;;;;3.53;1.10;;;;;;;;;;4992721;28;19912;-81
2021/05/04 03:13:55;;;;;;;3.70;1.00;;;;;;;;;;4982524;28;20029;-82
2021/05/04 03:16:24;;;;;;;3.88;1.02;;;;;;;;;;5009709;28;20033;-82
2021/05/04 03:18:50;;;;;;;3.20;1.00;;;;;;;;;;4984822;28;20051;-83
2021/05/04 03:21:19;;;;;;;4.45;1.13;;;;;;;;;;5010261;28;20083;-84
2021/05/04 03:23:48;;;;;;;2.45;0.90;;;;;;;;;;5009954;28;20029;-84
2021/05/04 03:26:14;;;;;;;3.97;1.10;;;;;;;;;;5010042;28;20099;-85
2021/05/04 03:28:42;;;;;;;3.00;0.90;;;;;;;;;;4990020;28;20029;-85
2021/05/04 03:31:10;;;;;;;3.55;1.00;;;;;;;;;;5007365;28;20018;-83
2021/05/04 03:33:37;;;;;;;3.58;0.95;;;;;;;;;;4993213;28;20037;-83
2021/05/04 03:36:05;;;;;;;2.95;0.90;;;;;;;;;;4998212;28;20029;-84
2021/05/04 03:38:32;;;;;;;2.95;1.00;;;;;;;;;;5013540;28;20123;-84
2021/05/04 03:40:58;;;;;;;3.35;1.10;;;;;;;;;;5008817;28;20017;-81
2021/05/04 03:43:24;;;;;;;3.75;1.20;;;;;;;;;;4990865;28;20047;-84
2021/05/04 03:45:51;;;;;;;3.50;1.27;;;;;;;;;;5008038;28;20189;-83
2021/05/04 03:48:17;;;;;;;2.83;0.90;;;;;;;;;;4994215;28;20022;-83
2021/05/04 03:51:07;;;;;;;2.85;1.00;;;;;;;;;;5006851;28;20037;-84
2021/05/04 03:53:33;;;;;;;5.38;0.80;;;;;;;;;;4972318;28;20037;-83
2021/05/04 03:55:59;;;;;;;4.18;1.13;;;;;;;;;;4987229;28;20039;-83
2021/05/04 03:58:27;;;;;;;;;;;;;;;;;;4990449;28;20038;-83
2021/05/04 04:00:53;;;;;;;;;;;;;;;;;;4983414;28;19921;-83
2021/05/04 04:03:20;;;;;;;3.42;1.08;;;;;;;;;;4992675;28;20088;-83
2021/05/04 04:05:48;;;;;;;4.38;1.27;;;;;;;;;;4984084;28;20014;-83
2021/05/04 04:08:14;;;;;;;5.05;1.20;;;;;;;;;;4989404;28;20025;-83
2021/05/04 04:10:42;;;;;;;3.28;1.13;;;;;;;;;;4973032;28;20034;-82
2021/05/04 04:13:09;;;;;;;4.15;1.10;;;;;;;;;;4990771;28;20025;-82
2021/05/04 04:15:35;;;;;;;;;;;;;;;;;;4987686;28;20149;-82
2021/05/04 04:18:01;;;;;;;6.70;1.23;;;;;;;;;;4977394;28;20071;-82
2021/05/04 04:20:28;;;;;;;;;;;;;;;;;;4995864;28;20034;-82
2021/05/04 04:22:55;;;;;;;7.97;1.60;;;;;;;;;;5000832;28;19923;-82
2021/05/04 04:25:23;;;;;;;4.50;1.30;;;;;;;;;;5002951;28;20038;-84
2021/05/04 04:27:50;;;;;;;5.80;1.50;;;;;;;;;;4998976;28;20321;-82
2021/05/04 04:30:19;;;;;;;7.68;1.52;;;;;;;;;;4988445;28;20034;-82
2021/05/04 04:32:46;;;;;;;4.63;1.40;;;;;;;;;;4986361;28;20187;-83
2021/05/04 04:35:13;;;;;;;5.05;1.52;;;;;;;;;;4966440;28;20505;-83
2021/05/04 04:37:40;;;;;;;6.47;1.70;;;;;;;;;;4964209;28;20140;-82
2021/05/04 04:40:06;;;;;;;;;;;;;;;;;;4973575;28;20136;-82
2021/05/04 04:42:33;;;;;;;5.35;1.58;;;;;;;;;;4953496;28;19924;-82
2021/05/04 04:44:59;;;;;;;5.13;1.45;;;;;;;;;;4967199;28;20074;-83
2021/05/04 04:47:25;;;;;;;5.18;1.63;;;;;;;;;;4969719;28;20191;-83
2021/05/04 04:49:52;;;;;;;5.15;1.23;;;;;;;;;;4966289;28;20034;-82
2021/05/04 04:52:18;;;;;;;;;;;;;;;;;;4957555;28;20088;-82
2021/05/04 04:54:45;;;;;;;5.40;1.67;;;;;;;;;;4951418;28;19981;-82
2021/05/04 04:57:11;;;;;;;5.47;1.58;;;;;;;;;;4969025;28;20030;-82
2021/05/04 04:59:39;;;;;;;5.47;1.60;;;;;;;;;;4968762;28;20046;-82
2021/05/04 05:02:05;;;;;;;7.38;1.60;;;;;;;;;;4957174;28;20470;-83
2021/05/04 05:04:32;;;;;;;7.22;1.55;;;;;;;;;;4954916;28;20060;-82
2021/05/04 05:07:01;;;;;;;5.00;1.30;;;;;;;;;;4970823;28;20038;-82
2021/05/04 05:09:27;;;;;;;8.15;1.80;;;;;;;;;;4968083;28;21303;-82
2021/05/04 05:11:53;;;;;;;;;;;;;;;;;;4966728;28;20117;-81
2021/05/04 05:14:20;;;;;;;4.32;1.40;;;;;;;;;;4969982;28;20020;-81
2021/05/04 05:16:47;;;;;;;5.68;1.42;;;;;;;;;;4963388;28;20101;-81
2021/05/04 05:19:13;;;;;;;;;;;;;;;;;;4972114;28;20124;-83
2021/05/04 05:21:40;;;;;;;5.30;1.45;;;;;;;;;;4952055;28;19949;-82
2021/05/04 05:24:08;;;;;;;6.05;1.35;;;;;;;;;;4954055;28;20026;-83
2021/05/04 05:26:37;;;;;;;7.07;1.70;;;;;;;;;;5006177;28;20480;-82
2021/05/04 05:29:06;;;;;;;5.57;1.70;;;;;;;;;;5003333;28;20044;-83
2021/05/04 05:31:34;;;;;;;5.38;1.60;;;;;;;;;;4992598;28;20035;-81
2021/05/04 05:34:02;;;;;;;6.18;1.40;;;;;;;;;;4994276;28;20095;-82
2021/05/04 05:36:30;;;;;;;5.57;1.60;;;;;;;;;;5009583;28;20053;-82
2021/05/04 05:38:58;;;;;;;6.57;1.52;;;;;;;;;;5004593;28;20029;-80
2021/05/04 05:41:25;;;;;;;8.68;2.35;;;;;;;;;;5004738;28;20033;-81
2021/05/04 05:43:51;;;;;;;6.18;1.80;;;;;;;;;;4988060;28;20174;-82
2021/05/04 05:46:18;;;;;;;6.43;2.05;;;;;;;;;;4990629;28;20038;-81
2021/05/04 05:48:46;;;;;;;9.63;2.70;;;;;;;;;;5008809;28;20075;-80
2021/05/04 05:51:12;;;;;;;5.25;1.80;;;;;;;;;;4993686;28;20029;-82
2021/05/04 05:53:39;;;;;;;7.07;2.22;;;;;;;;;;5005573;28;20040;-81
2021/05/04 05:56:09;;;;;;;9.20;2.15;;;;;;;;;;5009077;28;20116;-82
2021/05/04 05:58:35;;;;;;;12.55;2.33;;;;;;;;;;4988361;28;20040;-81
2021/05/04 06:01:02;;;;;;;6.60;1.60;;;;;;;;;;4993508;28;20037;-81
2021/05/04 06:03:30;;;;;;;6.18;1.80;;;;;;;;;;5013557;28;20040;-81
2021/05/04 06:05:58;;;;;;;5.38;1.50;;;;;;;;;;5007382;28;20017;-83
2021/05/04 06:08:27;;;;;;;6.50;1.60;;;;;;;;;;5007577;28;20061;-81
2021/05/04 06:10:54;;;;;;;9.05;1.98;;;;;;;;;;5005850;28;21401;-83
2021/05/04 06:13:21;;;;;;;5.18;1.58;;;;;;;;;;4991179;28;20083;-83
2021/05/04 06:15:47;;;;;;;7.47;1.80;;;;;;;;;;5002291;28;20091;-82
2021/05/04 06:18:15;;;;;;;9.25;1.88;;;;;;;;;;4978999;28;20036;-80
2021/05/04 06:20:46;;;;;;;8.25;2.08;;;;;;;;;;4986901;28;20041;-80
2021/05/04 06:23:14;;;;;;;7.25;1.58;;;;;;;;;;4991064;28;20644;-80
2021/05/04 06:25:41;;;;;;;6.65;1.60;;;;;;;;;;5007489;28;20028;-80
2021/05/04 06:28:10;;;;;;;6.78;1.80;;;;;;;;;;5005825;28;20037;-81
2021/05/04 06:30:37;;;;;;;5.13;1.42;;;;;;;;;;4986056;28;20613;-82
2021/05/04 06:33:13;;;;;;;6.93;1.92;;;;;;;;;;5009274;28;20497;-80
2021/05/04 06:35:41;;;;;;;8.50;1.58;;;;;;;;;;5000924;28;20030;-82
2021/05/04 06:38:14;;;;;;;5.90;1.50;;;;;;;;;;5006093;28;20545;-82
2021/05/04 06:40:45;;;;;;;8.07;1.80;;;;;;;;;;5004162;28;20093;-82
2021/05/04 06:43:11;;;;;;;6.88;1.80;;;;;;;;;;4989881;28;20049;-82
2021/05/04 06:45:41;;;;;;;7.38;1.80;;;;;;;;;;5003091;28;20037;-82
2021/05/04 06:48:08;;;;;;;5.72;1.95;;;;;;;;;;4992302;28;20489;-81
2021/05/04 06:50:34;;;;;;;8.27;1.50;;;;;;;;;;4985995;28;20026;-81
2021/05/04 06:53:01;;;;;;;6.90;1.50;;;;;;;;;;4990471;28;20148;-82
2021/05/04 06:55:27;;;;;;;6.20;1.45;;;;;;;;;;5010846;28;20029;-82
2021/05/04 06:57:54;;;;;;;5.95;1.70;;;;;;;;;;5008059;28;20152;-81
2021/05/04 07:00:20;;;;;;;5.70;1.13;;;;;;;;;;5013825;28;20033;-82
2021/05/04 07:02:48;;;;;;;5.78;1.50;;;;;;;;;;5007835;28;20045;-83
2021/05/04 07:05:16;;;;;;;6.63;1.80;;;;;;;;;;4994375;28;20033;-81
2021/05/04 07:07:44;;;;;;;6.55;1.33;;;;;;;;;;4993451;28;20049;-81
2021/05/04 07:10:12;;;;;;;7.45;1.50;;;;;;;;;;5008856;28;20029;-81
2021/05/04 07:12:39;;;;;;;5.53;1.42;;;;;;;;;;4984577;28;20113;-81
2021/05/04 07:15:06;;;;;;;7.38;1.40;;;;;;;;;;4988167;28;20199;-82
2021/05/04 07:17:33;;;;;;;5.68;1.50;;;;;;;;;;5005427;28;20480;-82
2021/05/04 07:19:59;;;;;;;5.22;1.40;;;;;;;;;;5002916;28;20033;-81
2021/05/04 07:22:28;;;;;;;5.13;1.30;;;;;;;;;;5007705;28;20040;-82
2021/05/04 07:24:56;;;;;;;5.95;1.40;;;;;;;;;;4986588;28;20025;-83
2021/05/04 07:27:23;;;;;;;4.57;1.48;;;;;;;;;;5007300;28;20038;-81
2021/05/04 07:29:50;;;;;;;5.80;1.50;;;;;;;;;;5007222;28;20099;-82
2021/05/04 07:32:18;;;;;;;5.88;1.48;;;;;;;;;;5007210;28;20021;-81
2021/05/04 07:34:59;;;;;;;5.80;1.83;;;;;;;;;;5004905;28;20017;-82
2021/05/04 07:37:25;;;;;;;7.47;1.55;;;;;;;;;;5008130;28;20087;-82
2021/05/04 07:39:51;;;;;;;5.22;1.40;;;;;;;;;;5001743;28;20661;-82
2021/05/04 07:42:17;;;;;;;4.47;1.33;;;;;;;;;;5004234;28;20013;-82
2021/05/04 07:44:45;;;;;;;5.72;1.27;;;;;;;;;;5006189;28;20033;-82
2021/05/04 07:47:12;;;;;;;5.35;1.50;;;;;;;;;;4991210;28;20034;-83
2021/05/04 07:49:47;;;;;;;3.45;1.30;;;;;;;;;;5003646;28;20167;-82
2021/05/04 07:52:13;;;;;;;5.60;1.23;;;;;;;;;;4991142;28;20603;-82
2021/05/04 07:54:43;;;;;;;4.22;1.20;;;;;;;;;;5004147;28;20026;-82
2021/05/04 07:57:09;;;;;;;5.68;1.50;;;;;;;;;;5007780;28;20473;-81
2021/05/04 07:59:36;;;;;;;4.80;1.38;;;;;;;;;;5013335;28;20038;-81
2021/05/04 08:02:03;;;;;;;6.47;1.38;;;;;;;;;;4992478;28;20041;-82
2021/05/04 08:04:31;;;;;;;4.70;1.40;;;;;;;;;;5007815;28;20042;-81
2021/05/04 08:07:01;;;;;;;7.28;1.38;;;;;;;;;;5013996;28;20125;-81
2021/05/04 08:09:29;;;;;;;5.55;1.13;;;;;;;;;;5014197;28;20041;-81
2021/05/04 08:11:56;;;;;;;5.03;1.40;;;;;;;;;;5009370;28;20029;-82
2021/05/04 08:14:24;;;;;;;5.80;1.20;;;;;;;;;;5015251;28;20056;-81
2021/05/04 08:16:52;;;;;;;6.18;1.30;;;;;;;;;;5006237;28;20097;-81
2021/05/04 08:19:20;;;;;;;4.20;1.27;;;;;;;;;;5010434;28;20037;-81
2021/05/04 08:21:47;;;;;;;7.93;1.40;;;;;;;;;;5010239;28;20036;-83
2021/05/04 08:24:13;;;;;;;5.15;1.40;;;;;;;;;;4994012;28;20029;-80
2021/05/04 08:26:41;;;;;;;5.53;1.45;;;;;;;;;;5009618;28;20037;-81
2021/05/04 08:29:13;;;;;;;7.00;1.40;;;;;;;;;;4977094;28;20500;-84
2021/05/04 08:31:42;;;;;;;6.60;1.30;;;;;;;;;;5004732;28;20060;-81
2021/05/04 08:34:11;;;;;;;5.25;1.40;;;;;;;;;;5006481;28;20033;-82
2021/05/04 08:36:39;;;;;;;3.95;1.23;;;;;;;;;;4989858;28;20034;-83
2021/05/04 08:39:06;;;;;;;5.95;1.50;;;;;;;;;;5006605;28;20141;-81
2021/05/04 08:41:36;;;;;;;6.60;1.63;;;;;;;;;;4991014;28;20033;-81
2021/05/04 08:44:03;;;;;;;5.57;1.35;;;;;;;;;;5007683;28;20052;-81
2021/05/04 08:46:34;;;;;;;6.63;1.25;;;;;;;;;;4977169;28;20048;-82
2021/05/04 08:49:04;;;;;;;4.78;1.33;;;;;;;;;;4991406;28;20021;-82
2021/05/04 08:51:33;;;;;;;2.90;1.00;;;;;;;;;;5009689;28;20030;-80
2021/05/04 08:53:59;;;;;;;4.88;1.30;;;;;;;;;;4987101;28;20025;-80
2021/05/04 08:56:26;;;;;;;4.88;1.20;;;;;;;;;;4992638;28;20038;-81
2021/05/04 08:58:52;;;;;;;5.85;1.30;;;;;;;;;;4990293;28;20522;-82
2021/05/04 09:01:25;;;;;;;9.18;1.60;;;;;;;;;;4989017;28;20037;-82
2021/05/04 09:03:56;;;;;;;5.10;1.35;;;;;;;;;;4968436;28;20045;-80
2021/05/04 09:06:38;;;;;;;6.53;1.15;;;;;;;;;;5009772;28;20026;-81
2021/05/04 09:09:19;;;;;;;6.55;1.20;;;;;;;;;;5007902;28;20032;-81
2021/05/04 09:11:59;;;;;;;8.30;1.67;;;;;;;;;;5002784;28;20053;-80
2021/05/04 09:14:54;;;;;;;3.78;1.17;;;;;;;;;;4993050;28;20449;-81
2021/05/04 09:17:33;;;;;;;3.85;1.20;;;;;;;;;;4992305;28;20607;-81
2021/05/04 09:22:45;;;;;;;3.90;1.10;;;;;;;;;;5003908;28;20071;-82
2021/05/04 09:25:32;;;;;;;6.32;1.13;;;;;;;;;;5004707;28;20029;-81
2021/05/04 09:28:03;;;;;;;4.75;1.20;;;;;;;;;;5007113;28;20018;-81
2021/05/04 09:30:30;;;;;;;3.25;1.00;;;;;;;;;;5008280;28;20422;-81
2021/05/04 09:32:57;;;;;;;4.85;1.10;;;;;;;;;;5001611;28;20665;-81
2021/05/04 09:35:30;;;;;;;4.30;0.98;;;;;;;;;;5005552;28;20122;-81
2021/05/04 09:38:12;;;;;;;5.18;0.90;;;;;;;;;;4988016;28;20404;-81
2021/05/04 09:40:42;;;;;;;4.93;1.20;;;;;;;;;;5008164;28;20040;-82
2021/05/04 09:43:10;;;;;;;4.40;1.20;;;;;;;;;;4988932;28;20040;-81
2021/05/04 09:45:59;;;;;;;6.22;0.90;;;;;;;;;;4988299;28;20043;-81
2021/05/04 09:48:31;;;;;;;6.50;1.02;;;;;;;;;;4991809;28;20091;-82
2021/05/04 09:51:14;;;;;;;4.80;1.20;;;;;;;;;;5006856;28;20029;-82
2021/05/04 09:54:05;;;;;;;4.15;1.30;;;;;;;;;;5007325;28;20041;-83
2021/05/04 09:56:36;;;;;;;5.63;1.30;;;;;;;;;;4990489;28;20033;-81
2021/05/04 09:59:02;;;;;;;6.00;1.40;;;;;;;;;;5012539;28;20029;-79
2021/05/04 10:01:30;;;;;;;4.18;1.05;;;;;;;;;;5006511;28;20505;-82
2021/05/04 10:03:57;;;;;;;4.53;1.20;;;;;;;;;;5007253;28;20108;-80
2021/05/04 10:06:24;;;;;;;5.47;1.20;;;;;;;;;;4990533;28;20085;-82
2021/05/04 10:08:52;;;;;;;8.45;1.45;;;;;;;;;;4986451;28;20032;-83
2021/05/04 10:11:21;;;;;;;8.40;1.40;;;;;;;;;;4984333;28;20049;-82
2021/05/04 10:13:52;;;;;;;7.03;1.15;;;;;;;;;;5003903;28;20040;-81
2021/05/04 10:16:26;;;;;;;8.90;1.92;;;;;;;;;;5008577;28;20045;-81
2021/05/04 10:18:52;;;;;;;5.22;1.40;;;;;;;;;;5005068;28;20115;-82
2021/05/04 10:21:20;;;;;;;4.40;1.30;;;;;;;;;;5003417;28;20029;-80
2021/05/04 10:23:49;;;;;;;6.85;1.40;;;;;;;;;;5003472;28;20079;-80
2021/05/04 10:26:17;;;;;;;4.28;1.30;;;;;;;;;;5007879;28;20026;-81
2021/05/04 10:28:57;;;;;;;4.32;1.35;;;;;;;;;;4994273;28;20041;-81
2021/05/04 10:31:37;;;;;;;2.85;1.10;;;;;;;;;;4995025;28;20041;-81
2021/05/04 10:34:22;;;;;;;4.53;0.82;;;;;;;;;;5011450;28;20028;-81
2021/05/04 10:36:53;;;;;;;5.63;1.42;;;;;;;;;;5006836;28;20534;-81
2021/05/04 10:39:48;;;;;;;3.90;1.23;;;;;;;;;;4989747;28;20048;-84
2021/05/04 10:42:17;;;;;;;3.75;1.40;;;;;;;;;;5008266;28;20053;-82
2021/05/04 10:45:06;;;;;;;7.88;1.48;;;;;;;;;;5009185;28;20258;-82
2021/05/04 10:47:43;;;;;;;5.72;2.30;;;;;;;;;;4996168;28;20595;-83
2021/05/04 10:50:15;;;;;;;7.07;2.97;;;;;;;;;;4992620;28;20040;-83
2021/05/04 10:52:45;;;;;;;10.18;4.97;;;;;;;;;;5007776;28;20591;-83
2021/05/04 10:55:11;;;;;;;7.78;2.35;;;;;;;;;;4992982;28;21008;-83
2021/05/04 10:57:57;;;;;;;6.22;1.90;;;;;;;;;;4994360;28;20051;-82
2021/05/04 11:00:42;;;;;;;18.65;9.38;;;;;;;;;;5002355;28;20041;-83
2021/05/04 11:03:40;;;;;;;29.02;19.58;;;;;;;;;;4988112;28;20060;-83
2021/05/04 11:06:08;;;;;;;7.18;2.45;;;;;;;;;;4980336;28;20079;-82
2021/05/04 11:08:43;;;;;;;6.30;1.85;;;;;;;;;;4990167;28;20037;-84
2021/05/04 11:11:33;;;;;;;5.97;2.08;;;;;;;;;;4990034;28;20072;-84
2021/05/04 11:14:05;;;;;;;5.82;1.70;;;;;;;;;;4995965;28;20053;-84
2021/05/04 11:16:36;;;;;;;5.10;1.38;;;;;;;;;;5007986;28;20044;-82
2021/05/04 11:19:05;;;;;;;8.63;2.28;;;;;;;;;;5009732;28;20038;-84
2021/05/04 11:21:38;;;;;;;4.38;1.23;;;;;;;;;;5008352;28;20449;-84
2021/05/04 11:24:13;;;;;;;6.50;1.70;;;;;;;;;;5006149;28;20040;-84
2021/05/04 11:26:57;;;;;;;3.83;1.25;;;;;;;;;;4990744;28;20910;-85
2021/05/04 11:29:25;;;;;;;8.73;2.75;;;;;;;;;;5012116;28;20034;-83
2021/05/04 11:31:52;;;;;;;8.75;1.70;;;;;;;;;;4986187;28;20482;-83
2021/05/04 11:34:38;;;;;;;5.15;1.60;;;;;;;;;;4991031;28;20135;-84
2021/05/04 11:37:06;;;;;;;7.78;2.92;;;;;;;;;;4987245;28;20018;-83
2021/05/04 11:39:32;;;;;;;6.25;1.60;;;;;;;;;;5003315;28;20029;-81
2021/05/04 11:42:00;;;;;;;5.55;1.10;;;;;;;;;;5006325;28;20034;-82
2021/05/04 11:44:27;;;;;;;6.85;1.10;;;;;;;;;;5006095;28;20647;-82
2021/05/04 11:46:55;;;;;;;8.75;1.63;;;;;;;;;;5001607;28;20038;-82
2021/05/04 11:49:27;;;;;;;2.80;0.90;;;;;;;;;;5005892;28;20030;-84
2021/05/04 11:52:10;;;;;;;7.15;1.08;;;;;;;;;;5006041;28;20082;-83
2021/05/04 11:54:38;;;;;;;4.22;1.25;;;;;;;;;;4987493;28;20041;-84
2021/05/04 11:57:14;;;;;;;5.15;1.95;;;;;;;;;;5009135;28;20038;-83
2021/05/04 11:59:42;;;;;;;;;;;;;;;;;;4997531;28;20037;-84
2021/05/04 12:02:09;;;;;;;4.28;1.10;;;;;;;;;;4989638;28;19968;-81
2021/05/04 12:04:51;;;;;;;4.82;1.13;;;;;;;;;;4984998;28;20033;-81
2021/05/04 12:07:37;;;;;;;5.25;0.90;;;;;;;;;;4993360;28;20044;-81
2021/05/04 12:10:08;;;;;;;6.60;1.30;;;;;;;;;;5009862;28;20034;-84
2021/05/04 12:12:49;;;;;;;6.30;0.90;;;;;;;;;;4989052;28;20029;-83
2021/05/04 12:15:17;;;;;;;3.80;0.93;;;;;;;;;;5008179;28;20025;-84
2021/05/04 12:18:04;;;;;;;3.83;1.00;;;;;;;;;;5002714;28;20032;-82
2021/05/04 12:20:32;;;;;;;4.60;0.93;;;;;;;;;;4990196;28;20396;-81
2021/05/04 12:23:03;;;;;;;5.05;1.02;;;;;;;;;;4987884;28;20095;-82
2021/05/04 12:25:46;;;;;;;3.65;0.90;;;;;;;;;;4989995;28;20036;-83
2021/05/04 12:28:14;;;;;;;2.70;0.88;;;;;;;;;;4998115;28;20029;-83
2021/05/04 12:30:41;;;;;;;3.33;0.95;;;;;;;;;;4983648;28;20034;-83
2021/05/04 12:33:07;;;;;;;4.15;1.08;;;;;;;;;;5004361;28;20022;-84
2021/05/04 12:35:37;;;;;;;6.30;1.80;;;;;;;;;;4985345;28;20466;-83
2021/05/04 12:38:06;;;;;;;6.40;1.33;;;;;;;;;;5001848;28;20041;-82
2021/05/04 12:40:33;;;;;;;5.60;1.40;;;;;;;;;;5001496;28;20025;-83
2021/05/04 12:43:10;;;;;;;7.20;2.03;;;;;;;;;;4990340;28;20543;-82
2021/05/04 12:45:38;;;;;;;4.25;1.25;;;;;;;;;;4986782;28;20056;-83
2021/05/04 12:48:06;;;;;;;4.57;1.13;;;;;;;;;;5003066;28;20128;-83
2021/05/04 12:50:34;;;;;;;4.60;1.20;;;;;;;;;;5006666;28;20046;-83
2021/05/04 12:53:02;;;;;;;2.55;1.05;;;;;;;;;;5003653;28;20025;-83
2021/05/04 12:55:30;;;;;;;5.30;1.20;;;;;;;;;;5008861;28;20057;-83
2021/05/04 12:58:11;;;;;;;4.30;1.20;;;;;;;;;;5006778;28;20949;-86
2021/05/04 13:00:37;;;;;;;3.60;0.95;;;;;;;;;;4976184;28;20026;-86
2021/05/04 13:03:15;;;;;;;4.90;1.20;;;;;;;;;;4998803;28;20835;-85
2021/05/04 13:05:44;;;;;;;4.00;1.00;;;;;;;;;;5007502;28;20125;-84
2021/05/04 13:08:11;;;;;;;5.18;1.20;;;;;;;;;;4995345;28;20093;-84
2021/05/04 13:11:00;;;;;;;4.63;1.23;;;;;;;;;;5008793;28;20025;-84
2021/05/04 13:14:18;;;;;;;3.38;0.95;;;;;;;;;;5016901;28;20144;-85
2021/05/04 13:30:21;;;;;;;4.72;0.90;;;;;;;;;;5013337;28;20245;-87
2021/05/04 13:32:52;;;;;;;5.07;1.08;;;;;;;;;;4999284;28;20018;-87
2021/05/04 13:35:29;;;;;;;5.50;1.10;;;;;;;;;;5022662;28;20022;-85
2021/05/04 13:38:03;;;;;;;5.95;1.20;;;;;;;;;;5018566;28;20029;-88
2021/05/04 13:48:38;;;;;;;;;;;;;;;;;;4957934;28;20050;-88
2021/05/04 13:51:05;;;;;;;4.03;1.10;;;;;;;;;;4957208;28;19914;-90
2021/05/04 13:53:32;;;;;;;5.80;1.00;;;;;;;;;;4938578;28;20031;-88
2021/05/04 13:56:00;;;;;;;3.53;1.00;;;;;;;;;;4940466;28;20542;-87
2021/05/04 13:58:32;;;;;;;5.68;1.02;;;;;;;;;;4960018;28;20066;-88
2021/05/04 14:01:14;;;;;;;7.45;1.35;;;;;;;;;;4957171;28;21216;-82
2021/05/04 14:06:26;;;;;;;3.38;1.00;;;;;;;;;;4950220;28;20039;-84
2021/05/04 14:28:02;;;;;;;3.25;1.00;;;;;;;;;;4915108;29;20050;-86
2021/05/04 14:30:31;;;;;;;4.05;1.02;;;;;;;;;;4914981;29;20847;-86
2021/05/04 14:32:57;;;;;;;4.10;0.88;;;;;;;;;;4910268;29;20038;-85
2021/05/04 14:35:36;;;;;;;6.00;1.30;;;;;;;;;;4915145;28;20039;-85
2021/05/04 14:38:28;;;;;;;6.43;1.10;;;;;;;;;;4912417;29;20106;-83
2021/05/04 14:47:02;;;;;;;4.72;1.05;;;;;;;;;;4853292;29;20049;-84
2021/05/04 15:00:45;;;;;;;4.90;1.10;;;;;;;;;;4913071;28;20150;-85
2021/05/04 15:03:13;;;;;;;4.88;1.20;;;;;;;;;;4909993;28;20054;-85
2021/05/04 15:05:39;;;;;;;7.10;1.20;;;;;;;;;;4906773;28;20122;-87
2021/05/04 15:08:07;;;;;;;5.57;1.30;;;;;;;;;;4911900;28;20047;-86
2021/05/04 15:10:33;;;;;;;6.32;1.38;;;;;;;;;;4906586;28;20521;-84
2021/05/04 15:13:06;;;;;;;5.30;1.20;;;;;;;;;;4889365;29;20594;-83
2021/05/04 15:21:37;;;;;;;6.78;1.52;;;;;;;;;;4908873;29;20141;-82
2021/05/04 15:24:03;;;;;;;4.30;1.02;;;;;;;;;;4902044;29;20039;-83
2021/05/04 15:26:38;;;;;;;3.95;1.10;;;;;;;;;;4910600;29;20042;-84
2021/05/04 15:29:06;;;;;;;4.88;0.93;;;;;;;;;;4908830;29;20035;-83
2021/05/04 15:31:47;;;;;;;6.28;1.10;;;;;;;;;;4906985;29;20043;-82
2021/05/04 15:34:14;;;;;;;3.83;0.95;;;;;;;;;;4911307;29;20072;-83
2021/05/04 15:36:40;;;;;;;7.60;1.15;;;;;;;;;;4905281;29;20054;-83
2021/05/04 15:39:10;;;;;;;3.70;1.00;;;;;;;;;;4904848;29;20036;-83
2021/05/04 15:41:44;;;;;;;6.80;1.10;;;;;;;;;;4920633;28;20837;-83
2021/05/04 15:44:12;;;;;;;6.95;1.40;;;;;;;;;;4941529;28;20043;-84
2021/05/04 16:11:11;;;;;;;3.90;1.08;;;;;;;;;;4989250;28;20104;-82
2021/05/04 16:13:40;;;;;;;5.47;1.00;;;;;;;;;;4980408;28;20650;-82
2021/05/04 16:16:07;;;;;;;5.15;1.10;;;;;;;;;;4988653;28;20125;-82
2021/05/04 16:18:33;;;;;;;3.90;1.00;;;;;;;;;;4971894;28;20037;-81
2021/05/04 16:21:17;;;;;;;7.25;1.20;;;;;;;;;;5004662;28;20022;-82
2021/05/04 16:26:54;;;;;;;5.47;1.13;;;;;;;;;;4988260;28;20125;-82
2021/05/04 16:32:06;;;;;;;6.38;1.27;;;;;;;;;;4969215;28;20190;-81
2021/05/04 16:34:32;;;;;;;5.13;1.15;;;;;;;;;;4970246;28;20038;-80
2021/05/04 16:37:00;;;;;;;5.43;1.27;;;;;;;;;;4970526;28;20477;-83
2021/05/04 16:39:28;;;;;;;6.45;1.23;;;;;;;;;;4985706;28;20034;-81
2021/05/04 16:42:00;;;;;;;6.10;1.30;;;;;;;;;;4972632;28;20042;-81
2021/05/04 16:44:27;;;;;;;5.22;1.30;;;;;;;;;;4968282;28;20121;-82
2021/05/04 16:46:55;;;;;;;5.50;1.15;;;;;;;;;;4981503;28;20615;-81
2021/05/04 16:49:38;;;;;;;7.72;1.60;;;;;;;;;;4990803;28;20042;-82
2021/05/04 16:52:07;;;;;;;5.45;1.35;;;;;;;;;;4991005;28;20103;-82